Humidity-temperature Sensor

Selected Measurement Type: Relative Humidity

 
Relative Humidity [%]     6 entries per hour
Showing data from 4/17/2015 (00:00:00 Z) to 4/10/2015 (00:01:00 Z)
Previous Next [ Day | 3-Days | 7-Days ]
First Last
Prev [ Day | 3-Days | 7-Days ] Next
First Last

Start Time:     :
End Time:     :     
Time (in GMT) :00 :50 :40 :30 :20 :10
Previous Next [ Day | 3-Days | 7-Days ]
First Last
Prev [ Day | 3-Days | 7-Days ] Next
First Last


123 => good data
MM => data is determined as missing
-- => data not received/configured
Back to Top Back to Top
4/17/2015 00:00 to 23:10 75.51 76.09 75.24 74.82 75.59 74.62
4/16/2015 23:00 to 22:10 74.58 74.99 76.25 77.56 76.11 76.36
4/16/2015 22:00 to 21:10 75.26 75.84 76.21 76.19 76.98 77.48
4/16/2015 21:00 to 20:10 77.56 77.00 77.27 77.13 77.85 78.39
4/16/2015 20:00 to 19:10 79.03 78.72 78.54 77.56 78.14 77.37
4/16/2015 19:00 to 18:10 76.23 75.96 76.03 75.99 76.61 77.42
4/16/2015 18:00 to 17:10 77.66 76.59 75.99 77.00 76.55 76.03
4/16/2015 17:00 to 16:10 76.23 79.16 82.74 82.70 81.54 80.34
4/16/2015 16:00 to 15:10 79.70 81.25 83.16 84.46 84.84 84.69
4/16/2015 15:00 to 14:10 84.32 84.94 85.81 85.81 85.56 85.15
4/16/2015 14:00 to 13:10 85.33 83.74 84.28 86.93 87.70 86.02
4/16/2015 13:00 to 12:10 82.99 82.72 82.06 83.45 84.09 84.73
4/16/2015 12:00 to 11:10 84.48 83.57 82.56 82.08 82.20 82.14
4/16/2015 11:00 to 10:10 82.95 83.55 84.55 84.36 84.42 84.69
4/16/2015 10:00 to 9:10 84.63 84.19 84.55 84.13 85.19 85.36
4/16/2015 09:00 to 8:10 84.94 85.48 84.57 83.39 82.62 82.99
4/16/2015 08:00 to 7:10 82.66 84.42 83.76 82.56 82.54 81.27
4/16/2015 07:00 to 6:10 80.82 80.63 80.48 81.19 81.52 81.35
4/16/2015 06:00 to 5:10 80.71 80.59 81.31 81.19 80.73 81.19
4/16/2015 05:00 to 4:10 80.44 80.32 79.84 79.84 80.38 80.77
4/16/2015 04:00 to 3:10 80.96 80.67 81.04 82.25 82.54 82.47
4/16/2015 03:00 to 2:10 82.74 83.16 82.76 83.57 82.45 82.95
4/16/2015 02:00 to 1:10 83.22 83.20 83.61 84.05 84.26 84.32
4/16/2015 01:00 to 0:10 84.17 83.43 83.34 83.20 83.78 86.39
4/16/2015 00:00 to 23:10 86.95 87.12 87.35 87.28 87.12 86.66
4/15/2015 23:00 to 22:10 86.08 85.79 86.02 84.67 83.12 82.99
4/15/2015 22:00 to 21:10 82.76 84.15 85.36 83.68 82.12 79.53
4/15/2015 21:00 to 20:10 79.76 79.94 82.70 83.53 81.56 81.60
4/15/2015 20:00 to 19:10 81.50 81.79 81.25 81.94 83.47 83.63
4/15/2015 19:00 to 18:10 83.43 82.62 82.62 82.83 82.91 83.03
4/15/2015 18:00 to 17:10 83.08 82.85 82.97 83.49 83.88 82.85
4/15/2015 17:00 to 16:10 82.08 81.42 81.40 81.33 81.77 80.61
4/15/2015 16:00 to 15:10 79.86 79.51 79.72 79.92 79.92 79.16
4/15/2015 15:00 to 14:10 81.38 82.02 82.52 80.75 80.46 80.69
4/15/2015 14:00 to 13:10 81.40 82.85 82.91 82.04 83.72 83.57
4/15/2015 13:00 to 12:10 83.24 83.34 81.46 80.82 80.79 80.75
4/15/2015 12:00 to 11:10 80.86 81.11 81.50 82.23 82.39 81.94
4/15/2015 11:00 to 10:10 82.56 83.28 82.72 83.80 83.72 80.57
4/15/2015 10:00 to 9:10 79.68 80.86 81.62 81.73 81.46 81.29
4/15/2015 09:00 to 8:10 80.61 80.40 81.85 81.00 80.96 83.30
4/15/2015 08:00 to 7:10 83.93 84.44 84.78 84.71 84.40 84.19
4/15/2015 07:00 to 6:10 83.49 82.79 81.83 79.32 77.71 79.82
4/15/2015 06:00 to 5:10 79.80 80.21 80.96 82.29 82.58 83.05
4/15/2015 05:00 to 4:10 83.51 82.85 80.98 79.24 79.22 80.90
4/15/2015 04:00 to 3:10 82.68 82.02 81.15 80.79 80.53 79.32
4/15/2015 03:00 to 2:10 80.24 78.47 78.29 78.06 78.16 78.06
4/15/2015 02:00 to 1:10 78.54 78.60 78.45 78.37 78.49 78.06
4/15/2015 01:00 to 0:10 76.65 76.23 76.03 75.53 74.97 74.72
4/15/2015 00:00 to 23:10 74.06 75.09 73.97 74.24 73.37 73.10
4/14/2015 23:00 to 22:10 72.40 73.48 72.98 72.81 73.87 73.02
4/14/2015 22:00 to 21:10 70.89 71.59 71.57 71.82 72.34 71.86
4/14/2015 21:00 to 20:10 73.52 73.48 72.38 71.22 71.57 73.37
4/14/2015 20:00 to 19:10 73.39 73.60 73.35 73.79 74.02 73.97
4/14/2015 19:00 to 18:10 74.10 74.00 72.96 73.50 71.94 72.15
4/14/2015 18:00 to 17:10 72.27 72.71 72.94 72.27 72.21 73.71
4/14/2015 17:00 to 16:10 74.97 75.51 75.94 75.67 75.55 74.24
4/14/2015 16:00 to 15:10 73.89 74.58 74.45 73.15 73.31 73.68
4/14/2015 15:00 to 14:10 73.46 74.14 74.93 74.29 73.66 73.95
4/14/2015 14:00 to 13:10 74.62 74.62 75.40 75.45 74.95 74.60
4/14/2015 13:00 to 12:10 75.11 75.11 75.24 75.32 74.95 75.03
4/14/2015 12:00 to 11:10 74.39 74.47 75.22 75.11 75.40 75.94
4/14/2015 11:00 to 10:10 75.32 75.40 74.35 74.37 75.03 75.96
4/14/2015 10:00 to 9:10 76.84 76.07 73.89 74.89 75.03 75.49
4/14/2015 09:00 to 8:10 74.31 74.04 76.07 76.38 76.15 75.11
4/14/2015 08:00 to 7:10 74.99 74.97 75.09 74.66 74.45 73.97
4/14/2015 07:00 to 6:10 74.14 74.24 75.09 74.82 74.39 74.97
4/14/2015 06:00 to 5:10 75.94 76.23 75.59 75.82 76.13 74.80
4/14/2015 05:00 to 4:10 76.32 76.03 76.11 75.94 75.32 76.57
4/14/2015 04:00 to 3:10 76.13 76.57 76.52 78.14 78.62 77.77
4/14/2015 03:00 to 2:10 76.67 75.92 75.65 75.34 74.95 75.94
4/14/2015 02:00 to 1:10 74.97 74.02 74.26 73.56 74.76 75.14
4/14/2015 01:00 to 0:10 75.99 75.28 75.03 75.45 73.62 73.89
4/14/2015 00:00 to 23:10 74.24 73.35 72.50 72.69 71.28 73.41
4/13/2015 23:00 to 22:10 73.52 73.08 75.22 76.13 74.47 74.20
4/13/2015 22:00 to 21:10 74.00 73.75 75.30 74.91 76.67 76.17
4/13/2015 21:00 to 20:10 72.48 74.60 74.95 75.14 76.55 76.81
4/13/2015 20:00 to 19:10 78.12 75.67 76.52 75.63 75.84 75.78
4/13/2015 19:00 to 18:10 76.77 76.17 76.63 79.57 79.36 78.04
4/13/2015 18:00 to 17:10 76.73 77.77 77.85 78.25 78.45 77.21
4/13/2015 17:00 to 16:10 77.40 76.57 77.17 76.67 76.19 76.30
4/13/2015 16:00 to 15:10 77.04 75.76 78.97 79.20 80.84 80.98
4/13/2015 15:00 to 14:10 81.33 80.50 77.69 81.83 84.32 83.63
4/13/2015 14:00 to 13:10 82.25 83.80 83.88 84.59 81.91 81.13
4/13/2015 13:00 to 12:10 80.77 80.90 82.37 83.43 84.48 84.86
4/13/2015 12:00 to 11:10 85.60 85.92 85.52 85.29 85.79 86.21
4/13/2015 11:00 to 10:10 85.60 85.36 85.17 83.82 84.03 84.28
4/13/2015 10:00 to 9:10 83.55 83.37 83.24 82.25 81.94 81.60
4/13/2015 09:00 to 8:10 82.18 81.64 82.66 82.70 81.89 82.16
4/13/2015 08:00 to 7:10 82.76 83.14 84.73 86.97 87.64 87.72
4/13/2015 07:00 to 6:10 86.72 85.85 84.98 84.65 82.06 81.00
4/13/2015 06:00 to 5:10 80.17 79.88 79.82 78.66 79.57 79.68
4/13/2015 05:00 to 4:10 80.24 79.41 79.94 80.11 80.07 80.55
4/13/2015 04:00 to 3:10 81.54 82.47 82.49 83.28 83.59 83.88
4/13/2015 03:00 to 2:10 82.99 81.81 82.37 84.34 87.18 87.45
4/13/2015 02:00 to 1:10 87.55 88.05 87.82 86.64 84.71 82.33
4/13/2015 01:00 to 0:10 81.83 82.31 82.29 82.58 82.33 82.37
4/13/2015 00:00 to 23:10 81.85 81.58 81.17 81.04 81.46 81.27
4/12/2015 23:00 to 22:10 78.74 78.04 78.16 79.24 78.18 77.17
4/12/2015 22:00 to 21:10 78.16 78.31 78.06 79.07 79.30 79.84
4/12/2015 21:00 to 20:10 79.14 79.16 79.86 80.30 80.13 79.53
4/12/2015 20:00 to 19:10 79.76 79.94 80.01 79.84 79.53 77.95
4/12/2015 19:00 to 18:10 78.89 78.35 77.52 78.06 79.34 79.39
4/12/2015 18:00 to 17:10 79.47 79.78 80.09 80.59 79.90 80.65
4/12/2015 17:00 to 16:10 79.97 80.65 80.40 80.79 80.61 79.90
4/12/2015 16:00 to 15:10 80.17 79.99 79.82 80.46 80.21 80.34
4/12/2015 15:00 to 14:10 79.41 79.74 79.45 80.17 79.53 79.82
4/12/2015 14:00 to 13:10 79.70 80.53 80.01 80.11 80.24 80.46
4/12/2015 13:00 to 12:10 80.71 81.27 80.94 80.86 81.17 81.60
4/12/2015 12:00 to 11:10 81.48 81.54 81.35 81.35 81.58 81.40
4/12/2015 11:00 to 10:10 81.31 81.87 81.35 82.04 83.03 82.41
4/12/2015 10:00 to 9:10 81.81 81.71 81.81 81.75 81.23 81.64
4/12/2015 09:00 to 8:10 81.67 81.89 81.23 81.42 81.62 81.25
4/12/2015 08:00 to 7:10 80.42 80.57 80.21 80.65 80.79 80.79
4/12/2015 07:00 to 6:10 81.23 80.92 80.90 80.84 81.13 80.79
4/12/2015 06:00 to 5:10 81.15 80.05 80.42 80.28 80.84 80.86
4/12/2015 05:00 to 4:10 80.92 81.13 80.84 81.60 81.31 79.99
4/12/2015 04:00 to 3:10 80.11 80.28 80.50 80.42 80.50 79.68
4/12/2015 03:00 to 2:10 80.17 81.02 80.19 79.32 80.07 80.44
4/12/2015 02:00 to 1:10 80.09 81.35 81.11 79.97 79.63 79.80
4/12/2015 01:00 to 0:10 79.22 78.91 78.66 78.51 78.25 78.10
4/12/2015 00:00 to 23:10 78.12 77.71 77.08 76.77 76.61 75.92
4/11/2015 23:00 to 22:10 77.54 77.83 77.66 77.21 78.43 78.66
4/11/2015 22:00 to 21:10 77.87 76.88 77.73 78.25 77.87 76.73
4/11/2015 21:00 to 20:10 77.56 77.77 78.87 79.61 79.12 79.45
4/11/2015 20:00 to 19:10 79.68 79.43 79.45 80.11 80.17 80.09
4/11/2015 19:00 to 18:10 80.07 79.49 79.22 78.45 78.43 79.14
4/11/2015 18:00 to 17:10 79.57 79.82 80.05 80.46 81.13 81.50
4/11/2015 17:00 to 16:10 81.25 81.00 81.06 80.42 80.73 80.79
4/11/2015 16:00 to 15:10 80.61 80.53 80.42 80.82 81.15 81.35
4/11/2015 15:00 to 14:10 79.94 80.05 80.53 80.50 80.26 80.11
4/11/2015 14:00 to 13:10 80.17 81.02 80.03 80.44 80.63 80.84
4/11/2015 13:00 to 12:10 80.73 81.67 82.06 81.81 82.12 82.39
4/11/2015 12:00 to 11:10 81.54 82.10 82.45 82.00 81.83 82.14
4/11/2015 11:00 to 10:10 82.47 83.08 83.28 83.18 83.57 83.55
4/11/2015 10:00 to 9:10 83.78 84.15 84.38 84.36 84.32 83.97
4/11/2015 09:00 to 8:10 83.59 83.37 82.72 81.94 81.42 80.61
4/11/2015 08:00 to 7:10 -- -- -- -- -- --
4/11/2015 07:00 to 6:10 81.19 82.25 82.47 82.93 82.68 83.12
4/11/2015 06:00 to 5:10 82.64 81.87 81.19 81.00 80.75 81.87
4/11/2015 05:00 to 4:10 81.31 80.92 80.84 81.17 81.19 81.09
4/11/2015 04:00 to 3:10 80.90 81.48 81.31 81.89 81.42 82.14
4/11/2015 03:00 to 2:10 83.30 85.23 85.58 84.65 82.47 82.66
4/11/2015 02:00 to 1:10 82.70 81.98 81.02 82.08 80.98 80.55
4/11/2015 01:00 to 0:10 80.96 79.97 80.15 80.63 81.58 82.49
4/11/2015 00:00 to 23:10 81.56 79.80 77.83 77.48 77.66 78.85
4/10/2015 23:00 to 22:10 80.05 81.35 80.57 79.51 78.31 79.88
4/10/2015 22:00 to 21:10 81.31 82.27 81.89 81.46 80.15 82.29
4/10/2015 21:00 to 20:10 83.55 84.22 84.44 84.24 83.55 82.62
4/10/2015 20:00 to 19:10 81.02 81.96 82.91 82.64 83.14 84.80
4/10/2015 19:00 to 18:10 85.07 85.23 85.83 86.99 87.76 88.32
4/10/2015 18:00 to 17:10 87.97 87.22 86.33 85.21 83.86 83.30
4/10/2015 17:00 to 16:10 83.37 82.37 79.32 79.57 80.03 80.84
4/10/2015 16:00 to 15:10 80.11 80.48 80.03 79.68 79.70 79.41
4/10/2015 15:00 to 14:10 78.93 80.07 80.11 79.94 80.82 79.94
4/10/2015 14:00 to 13:10 79.82 80.48 80.15 79.55 78.99 78.41
4/10/2015 13:00 to 12:10 78.45 79.20 79.84 79.80 80.53 80.92
4/10/2015 12:00 to 11:10 81.13 81.91 81.64 82.27 82.85 83.01
4/10/2015 11:00 to 10:10 82.91 82.64 80.63 79.61 79.01 78.04
4/10/2015 10:00 to 9:10 77.71 79.36 78.97 78.29 78.08 78.41
4/10/2015 09:00 to 8:10 79.78 79.57 79.16 79.39 80.38 80.38
4/10/2015 08:00 to 7:10 80.15 79.57 80.21 79.53 79.47 80.05
4/10/2015 07:00 to 6:10 80.94 80.42 80.36 80.24 80.42 80.79
4/10/2015 06:00 to 5:10 79.78 79.88 79.80 80.05 79.59 79.32
4/10/2015 05:00 to 4:10 78.89 78.89 78.87 79.05 79.05 78.47
4/10/2015 04:00 to 3:10 78.06 77.95 76.07 76.40 78.08 78.95
4/10/2015 03:00 to 2:10 78.64 79.01 79.01 79.97 79.43 79.59
4/10/2015 02:00 to 1:10 80.01 78.99 78.78 79.45 78.62 78.08
4/10/2015 01:00 to 0:10 78.18 78.60 78.56 78.80 78.47 78.00